Time;durP1;ratioP1;P1;durP2;ratioP2;P2;SDS_P1;SDS_P2;PMS_P1;PMS_P2;Temp;Humidity;BMP_temperature;BMP_pressure;BME280_temperature;BME280_humidity;BME280_pressure;Samples;Min_cycle;Max_cycle;Signal;HPM_P1;HPM_P2
2023/05/10 00:00:15;;;;;;;7.47;6.80;;;;;;;19.01;58.56;97223.50;8483489;27;20334;-68
2023/05/10 00:04:27;;;;;;;6.90;6.40;;;;;;;19.12;58.32;97215.50;8449354;28;20302;-70
2023/05/10 00:08:29;;;;;;;7.30;6.70;;;;;;;19.04;58.78;97207.50;8449348;27;20236;-69
2023/05/10 00:12:32;;;;;;;7.60;6.87;;;;;;;19.09;58.44;97218.38;8449484;28;20236;-69
2023/05/10 00:16:35;;;;;;;7.40;6.80;;;;;;;18.97;59.68;97211.63;8449471;28;20535;-69
2023/05/10 00:20:39;;;;;;;7.37;6.73;;;;;;;18.91;59.69;97213.03;8449477;27;20243;-69
2023/05/10 00:24:42;;;;;;;7.13;6.63;;;;;;;18.95;59.62;97196.03;8449370;28;20294;-69
2023/05/10 00:28:44;;;;;;;6.70;6.27;;;;;;;18.97;60.30;97209.00;8449215;27;20223;-68
2023/05/10 00:32:47;;;;;;;7.23;6.63;;;;;;;19.02;60.22;97201.56;8448881;28;20247;-69
2023/05/10 00:36:52;;;;;;;7.03;6.33;;;;;;;19.01;60.20;97201.69;8448747;28;20234;-69
2023/05/10 00:40:55;;;;;;;6.27;5.80;;;;;;;19.12;59.40;97191.06;8448237;27;20231;-69
2023/05/10 00:44:57;;;;;;;6.37;5.87;;;;;;;18.97;60.48;97192.47;8448544;27;20230;-69
2023/05/10 00:49:00;;;;;;;5.80;5.40;;;;;;;18.93;60.42;97195.34;8448376;28;20234;-69
2023/05/10 00:53:05;;;;;;;5.97;5.47;;;;;;;19.06;59.71;97189.81;8448340;28;20422;-69
2023/05/10 00:57:08;;;;;;;5.93;5.43;;;;;;;19.06;60.18;97183.75;8448094;28;20231;-69
2023/05/10 01:01:11;;;;;;;6.10;5.50;;;;;;;19.05;60.58;97188.16;8447901;28;20233;-69
2023/05/10 01:05:14;;;;;;;6.73;6.13;;;;;;;18.84;61.20;97196.16;8446851;28;20536;-69
2023/05/10 01:09:19;;;;;;;5.73;5.33;;;;;;;18.69;61.97;97194.91;8447968;28;20247;-69
2023/05/10 01:13:34;;;;;;;6.30;5.70;;;;;;;18.86;61.26;97188.16;8446913;28;20222;-69
2023/05/10 01:17:37;;;;;;;5.77;5.27;;;;;;;18.72;62.27;97192.84;8447346;28;20227;-69
2023/05/10 01:21:45;;;;;;;5.80;5.30;;;;;;;18.81;61.72;97193.84;8446945;28;20235;-69
2023/05/10 01:26:17;;;;;;;5.97;5.57;;;;;;;18.91;61.39;97194.66;8447359;28;20261;-69
2023/05/10 01:30:48;;;;;;;6.53;6.03;;;;;;;18.11;65.20;97193.03;8433477;28;20511;-69
2023/05/10 01:34:58;;;;;;;5.80;5.30;;;;;;;18.50;63.56;97195.72;8446946;28;20238;-69
2023/05/10 01:39:04;;;;;;;5.00;4.43;;;;;;;18.63;63.25;97198.06;8446654;27;20226;-70
2023/05/10 01:43:12;;;;;;;5.30;4.80;;;;;;;18.60;63.31;97198.34;8446481;27;20572;-69
2023/05/10 01:47:17;;;;;;;5.40;5.00;;;;;;;18.69;63.48;97194.91;8446670;28;20421;-70
2023/05/10 01:51:25;;;;;;;5.23;4.80;;;;;;;18.73;62.74;97193.66;8446177;27;20224;-69
2023/05/10 01:55:30;;;;;;;5.03;4.63;;;;;;;18.80;62.71;97196.56;8446402;28;20538;-69
2023/05/10 01:59:38;;;;;;;5.67;5.27;;;;;;;18.77;62.90;97202.91;8446185;27;20557;-69
2023/05/10 02:03:43;;;;;;;6.10;5.70;;;;;;;18.45;64.82;97204.00;8445882;28;20515;-69
2023/05/10 02:07:47;;;;;;;5.37;5.07;;;;;;;18.61;64.31;97200.84;8445928;27;20230;-69
2023/05/10 02:11:50;;;;;;;4.90;4.50;;;;;;;18.56;63.84;97203.03;8445822;28;20624;-69
2023/05/10 02:15:54;;;;;;;3.90;3.60;;;;;;;18.61;63.46;97205.25;8445637;28;20235;-69
2023/05/10 02:19:57;;;;;;;3.83;3.53;;;;;;;18.48;64.34;97203.72;8445861;27;20527;-69
2023/05/10 02:24:03;;;;;;;2.70;2.60;;;;;;;18.39;63.97;97199.31;8445656;28;20323;-69
2023/05/10 02:28:07;;;;;;;2.57;2.37;;;;;;;18.44;64.00;97199.72;8445534;28;20247;-69
2023/05/10 02:32:11;;;;;;;4.13;2.40;;;;;;;18.25;64.97;97199.69;8445661;27;20234;-69
2023/05/10 02:36:15;;;;;;;1.70;1.60;;;;;;;18.26;64.64;97209.19;8445687;28;20232;-69
2023/05/10 02:40:21;;;;;;;1.73;1.63;;;;;;;18.30;64.31;97208.81;8469774;27;20230;-72
2023/05/10 02:44:24;;;;;;;1.73;1.63;;;;;;;17.96;65.03;97176.84;8478984;28;20550;-69
2023/05/10 02:48:27;;;;;;;1.23;1.13;;;;;;;18.16;64.00;97196.06;8478672;28;20230;-69
2023/05/10 02:52:31;;;;;;;0.90;0.90;;;;;;;18.04;63.60;97173.56;8478867;27;20330;-69
2023/05/10 02:56:39;;;;;;;0.90;0.57;;;;;;;18.09;63.44;97192.34;8478915;28;20392;-69
2023/05/10 03:00:42;;;;;;;0.60;0.60;;;;;;;18.02;64.00;97193.84;8478731;28;20231;-69
2023/05/10 03:04:45;;;;;;;0.60;0.60;;;;;;;18.09;62.94;97197.59;8478752;28;20256;-69
2023/05/10 03:08:48;;;;;;;0.57;0.47;;;;;;;17.78;64.13;97200.19;8478889;28;20286;-69
2023/05/10 03:13:04;;;;;;;0.70;0.40;;;;;;;17.84;64.39;97202.31;8478401;27;20230;-69
2023/05/10 03:17:11;;;;;;;0.50;0.50;;;;;;;17.88;64.12;97205.50;8478519;27;20313;-69
2023/05/10 03:21:15;;;;;;;0.87;0.50;;;;;;;17.87;64.31;97202.03;8478494;28;20253;-69
2023/05/10 03:25:19;;;;;;;1.90;0.63;;;;;;;17.90;64.24;97212.28;8469874;28;20515;-71
2023/05/10 03:29:23;;;;;;;0.77;0.50;;;;;;;18.04;64.12;97215.47;8484297;27;20318;-69
2023/05/10 03:33:26;;;;;;;0.60;0.57;;;;;;;18.10;63.62;97223.63;8484758;28;20541;-69
2023/05/10 03:37:32;;;;;;;0.70;0.70;;;;;;;17.96;63.95;97222.22;8484461;27;20235;-69
2023/05/10 03:41:34;;;;;;;0.50;0.50;;;;;;;18.04;63.90;97234.66;8484301;28;20407;-69
2023/05/10 03:45:39;;;;;;;1.17;0.50;;;;;;;17.92;63.99;97230.47;8483973;27;20228;-69
2023/05/10 03:49:42;;;;;;;0.67;0.57;;;;;;;18.01;63.49;97234.06;8484225;28;20234;-69
2023/05/10 03:53:46;;;;;;;0.50;0.50;;;;;;;17.84;63.84;97241.63;8483910;28;20223;-69
2023/05/10 03:57:49;;;;;;;0.60;0.60;;;;;;;17.96;63.46;97250.19;8484059;28;20222;-69
2023/05/10 04:01:53;;;;;;;0.50;0.50;;;;;;;17.48;65.00;97250.75;8483884;28;20528;-69
2023/05/10 04:06:00;;;;;;;0.43;0.43;;;;;;;17.52;64.07;97236.47;8483786;28;20257;-68
2023/05/10 04:10:03;;;;;;;0.50;0.50;;;;;;;17.62;64.13;97257.44;8483907;27;20226;-69
2023/05/10 04:14:09;;;;;;;0.50;0.50;;;;;;;17.67;63.97;97255.25;8483464;28;20237;-69
2023/05/10 04:18:13;;;;;;;2.33;0.50;;;;;;;17.58;64.05;97262.13;8483024;27;20467;-69
2023/05/10 04:22:16;;;;;;;0.53;0.53;;;;;;;17.65;63.42;97271.13;8482947;27;20234;-69
2023/05/10 04:26:18;;;;;;;0.50;0.50;;;;;;;17.60;63.59;97268.03;8448261;28;20239;-69
2023/05/10 04:30:21;;;;;;;1.03;0.50;;;;;;;17.06;63.05;97190.56;8448769;27;20262;-69
2023/05/10 04:34:25;;;;;;;2.10;0.70;;;;;;;17.42;63.79;97275.66;8448708;28;20423;-69
2023/05/10 04:38:30;;;;;;;0.70;0.70;;;;;;;17.40;63.19;97264.47;8448497;28;20233;-69
2023/05/10 04:42:33;;;;;;;0.77;0.70;;;;;;;17.41;63.32;97286.25;8448379;27;20239;-69
2023/05/10 04:46:36;;;;;;;0.50;0.50;;;;;;;17.57;63.11;97281.38;8448555;28;20242;-69
2023/05/10 04:50:40;;;;;;;0.80;0.80;;;;;;;17.57;62.70;97284.00;8448252;28;20229;-69
2023/05/10 04:54:43;;;;;;;0.70;0.70;;;;;;;17.37;63.20;97291.72;8448326;27;20238;-70
2023/05/10 04:58:46;;;;;;;0.80;0.60;;;;;;;17.59;63.01;97296.03;8448225;28;20226;-70
2023/05/10 05:02:48;;;;;;;0.70;0.70;;;;;;;17.45;62.30;97298.13;8448052;28;20230;-70
2023/05/10 05:06:53;;;;;;;1.53;0.60;;;;;;;17.60;61.76;97307.31;8447797;27;20426;-70
2023/05/10 05:10:56;;;;;;;1.70;0.80;;;;;;;17.71;61.85;97314.28;8448039;28;20238;-70
2023/05/10 05:14:59;;;;;;;0.80;0.80;;;;;;;17.23;62.61;97320.84;8447888;28;20235;-70
2023/05/10 05:19:01;;;;;;;1.23;0.77;;;;;;;17.53;61.74;97314.84;8447419;27;20232;-69
2023/05/10 05:23:06;;;;;;;1.60;0.70;;;;;;;17.50;61.85;97317.72;8447387;28;20230;-69
2023/05/10 05:27:09;;;;;;;0.63;0.63;;;;;;;17.45;61.68;97326.91;8447538;28;20235;-69
2023/05/10 05:31:11;;;;;;;0.60;0.60;;;;;;;17.66;61.19;97326.91;8447161;27;20234;-69
2023/05/10 05:35:14;;;;;;;0.70;0.70;;;;;;;17.24;61.97;97327.72;8446839;27;20232;-68
2023/05/10 05:39:20;;;;;;;1.03;0.90;;;;;;;17.46;61.90;97325.94;8471717;28;20225;-70
2023/05/10 05:43:23;;;;;;;1.13;0.80;;;;;;;17.42;61.59;97327.16;8480686;28;20245;-69
2023/05/10 05:47:28;;;;;;;1.67;1.00;;;;;;;17.77;60.80;97338.16;8480570;27;20231;-69
2023/05/10 05:51:32;;;;;;;0.83;0.83;;;;;;;17.66;61.38;97332.97;8479678;28;20233;-69
2023/05/10 05:55:36;;;;;;;1.00;0.90;;;;;;;17.71;61.06;97345.72;8480271;28;20260;-69
2023/05/10 05:59:41;;;;;;;2.10;1.00;;;;;;;17.58;61.28;97344.09;8480086;27;20399;-69
2023/05/10 06:03:44;;;;;;;1.27;0.90;;;;;;;17.84;60.71;97361.19;8479806;28;20234;-69
2023/05/10 06:07:47;;;;;;;1.33;0.87;;;;;;;17.26;61.58;97312.72;8479895;28;20372;-69
2023/05/10 06:11:51;;;;;;;1.20;1.10;;;;;;;17.56;61.44;97377.41;8479931;28;20231;-69
2023/05/10 06:15:54;;;;;;;0.90;0.90;;;;;;;17.58;61.19;97372.88;8479762;27;20245;-69
2023/05/10 06:19:58;;;;;;;0.73;0.73;;;;;;;17.45;61.56;97380.09;8479161;27;20225;-69
2023/05/10 06:24:02;;;;;;;1.20;0.83;;;;;;;17.85;60.64;97382.06;8479373;28;20265;-69
2023/05/10 06:28:06;;;;;;;2.47;1.00;;;;;;;17.72;61.08;97378.78;8479499;28;20292;-69
2023/05/10 06:32:09;;;;;;;1.20;0.90;;;;;;;17.87;60.12;97382.75;8478982;27;20216;-69
2023/05/10 06:36:13;;;;;;;1.10;1.00;;;;;;;18.11;59.70;97384.31;8479153;27;20235;-69
2023/05/10 06:40:16;;;;;;;1.03;0.70;;;;;;;17.96;59.28;97384.63;8478888;28;20290;-69
2023/05/10 06:44:20;;;;;;;0.90;0.90;;;;;;;18.21;58.65;97381.72;8470005;28;20238;-70
2023/05/10 06:48:23;;;;;;;1.13;0.90;;;;;;;18.40;58.37;97384.44;8478891;27;20226;-69
2023/05/10 06:52:25;;;;;;;0.80;0.80;;;;;;;18.17;58.86;97389.84;8478799;27;20229;-69
2023/05/10 06:56:29;;;;;;;1.17;1.00;;;;;;;18.36;57.93;97383.03;8478779;28;20241;-69
2023/05/10 07:00:33;;;;;;;1.10;0.80;;;;;;;18.15;58.17;97370.81;8478244;28;20238;-69
2023/05/10 07:04:35;;;;;;;1.73;0.80;;;;;;;18.28;57.57;97395.97;8484191;27;20325;-69
2023/05/10 07:08:38;;;;;;;1.57;0.80;;;;;;;18.25;57.36;97391.81;8485202;28;20398;-69
2023/05/10 07:12:41;;;;;;;1.67;0.90;;;;;;;18.55;58.05;97400.66;8485326;28;20283;-69
2023/05/10 07:16:45;;;;;;;1.13;1.00;;;;;;;18.49;57.66;97396.75;8485202;27;20223;-69
2023/05/10 07:20:48;;;;;;;1.20;0.90;;;;;;;18.05;58.04;97401.38;8484726;28;20433;-69
2023/05/10 07:24:52;;;;;;;1.80;0.90;;;;;;;18.11;57.83;97405.25;8484893;28;20548;-69
2023/05/10 07:28:54;;;;;;;0.97;0.80;;;;;;;18.35;57.91;97403.19;8484874;27;20395;-69
2023/05/10 07:32:59;;;;;;;0.90;0.80;;;;;;;18.52;57.49;97412.25;8484583;27;20223;-70
2023/05/10 07:37:02;;;;;;;2.20;0.83;;;;;;;18.56;57.75;97411.00;8484218;28;20223;-69
2023/05/10 07:41:05;;;;;;;1.87;1.07;;;;;;;18.22;57.23;97410.44;8484509;27;20234;-69
2023/05/10 07:45:10;;;;;;;2.00;0.90;;;;;;;18.50;57.48;97411.53;8484254;28;20305;-69
2023/05/10 07:49:15;;;;;;;1.37;1.10;;;;;;;18.36;57.20;97425.00;8484143;27;20238;-69
2023/05/10 07:53:19;;;;;;;2.30;1.33;;;;;;;18.09;58.04;97420.28;8474901;27;20253;-70
2023/05/10 07:57:21;;;;;;;1.17;1.17;;;;;;;18.65;57.14;97432.16;8483830;27;20515;-69
2023/05/10 08:01:24;;;;;;;1.17;1.10;;;;;;;18.64;56.91;97431.34;8483703;27;20257;-69
2023/05/10 08:05:29;;;;;;;1.80;1.20;;;;;;;18.81;56.12;97418.56;8483247;28;20233;-69
2023/05/10 08:09:32;;;;;;;1.10;1.10;;;;;;;19.10;55.61;97437.03;8483334;27;20236;-69
2023/05/10 08:13:35;;;;;;;2.00;1.00;;;;;;;19.34;55.10;97440.13;8482890;27;20233;-69
2023/05/10 08:17:37;;;;;;;1.10;1.10;;;;;;;19.05;55.39;97432.19;8483094;27;20266;-69
2023/05/10 08:21:42;;;;;;;1.23;0.93;;;;;;;18.97;54.96;97431.22;8482540;27;20227;-69
2023/05/10 08:25:45;;;;;;;2.03;1.30;;;;;;;18.90;56.09;97436.13;8483187;28;20518;-69
2023/05/10 08:29:48;;;;;;;1.17;1.07;;;;;;;19.17;55.42;97438.13;8482685;27;20463;-69
2023/05/10 08:33:52;;;;;;;1.73;1.10;;;;;;;18.81;55.67;97455.28;8482601;27;20223;-69
2023/05/10 08:37:56;;;;;;;1.60;1.40;;;;;;;18.60;57.18;97457.94;8482254;28;20231;-69
2023/05/10 08:42:04;;;;;;;1.47;1.33;;;;;;;18.57;58.11;97466.91;8482623;28;20549;-69
2023/05/10 08:46:08;;;;;;;2.07;1.40;;;;;;;18.90;57.49;97468.44;8482708;27;20231;-69
2023/05/10 08:50:11;;;;;;;1.53;1.30;;;;;;;19.63;57.02;97465.59;8482360;28;20227;-69
2023/05/10 08:54:15;;;;;;;2.70;1.40;;;;;;;19.95;56.16;97459.25;8481901;28;20235;-70
2023/05/10 08:58:19;;;;;;;1.60;1.50;;;;;;;19.68;55.71;97470.41;8473638;28;20499;-71
2023/05/10 09:02:22;;;;;;;8.83;2.10;;;;;;;20.37;53.11;97451.03;8482053;28;20368;-68
2023/05/10 09:06:25;;;;;;;2.73;1.30;;;;;;;20.46;52.59;97462.50;8481482;27;20239;-69
2023/05/10 09:10:30;;;;;;;1.40;1.30;;;;;;;20.03;52.61;97469.91;8481974;27;20236;-69
2023/05/10 09:14:36;;;;;;;2.10;1.10;;;;;;;19.73;51.83;97470.88;8481877;27;20235;-68
2023/05/10 09:18:38;;;;;;;1.90;1.17;;;;;;;20.25;52.83;97474.03;8481502;27;20232;-69
2023/05/10 09:22:41;;;;;;;1.90;1.00;;;;;;;21.39;47.31;97462.53;8480771;28;20226;-68
2023/05/10 09:26:49;;;;;;;1.30;0.97;;;;;;;21.56;47.48;97469.66;8480335;27;20229;-69
2023/05/10 09:30:55;;;;;;;3.80;1.47;;;;;;;22.14;47.79;97449.91;8481034;27;20233;-68
2023/05/10 09:34:58;;;;;;;1.43;1.33;;;;;;;21.95;46.52;97474.66;8480860;28;20242;-68
2023/05/10 09:39:01;;;;;;;2.17;1.17;;;;;;;22.44;44.92;97477.66;8480700;28;20233;-68
2023/05/10 09:43:07;;;;;;;1.17;1.00;;;;;;;22.59;44.13;97485.03;8381974;28;20236;-68
2023/05/10 09:47:10;;;;;;;1.13;0.90;;;;;;;22.78;44.16;97481.34;8380113;28;20225;-69
2023/05/10 09:51:20;;;;;;;3.13;0.97;;;;;;;23.31;42.29;97461.78;8379285;28;20225;-68
2023/05/10 09:55:25;;;;;;;0.97;0.90;;;;;;;22.76;44.40;97476.22;8378913;28;20256;-68
2023/05/10 09:59:30;;;;;;;1.20;1.10;;;;;;;22.39;44.13;97479.97;8379087;28;20233;-69
2023/05/10 10:03:33;;;;;;;2.30;0.95;;;;;;;23.57;40.75;97460.84;8376866;28;20710;-69
2023/05/10 10:07:36;;;;;;;3.07;1.10;;;;;;;21.74;44.77;97451.25;8378154;28;20240;-69
2023/05/10 10:11:41;;;;;;;1.60;1.00;;;;;;;21.83;42.51;97468.75;8378417;28;20288;-69
2023/05/10 10:15:46;;;;;;;1.30;1.10;;;;;;;23.65;41.05;97455.59;8376258;28;20425;-69
2023/05/10 10:19:49;;;;;;;1.90;1.20;;;;;;;23.65;40.04;97458.25;8377429;28;20225;-69
2023/05/10 10:23:52;;;;;;;0.93;0.93;;;;;;;23.62;39.77;97455.91;8377310;28;20233;-69
2023/05/10 10:28:05;;;;;;;13.00;1.50;;;;;;;24.45;39.63;97457.59;8377824;28;20220;-67
2023/05/10 10:32:13;;;;;;;1.27;1.10;;;;;;;23.08;41.35;97456.28;8377522;28;20229;-69
2023/05/10 10:36:16;;;;;;;3.93;1.90;;;;;;;22.76;43.51;97462.19;8377300;28;20240;-70
2023/05/10 10:40:26;;;;;;;2.20;2.00;;;;;;;22.83;43.58;97452.66;8398184;28;20239;-70
2023/05/10 10:44:38;;;;;;;2.20;2.00;;;;;;;22.00;44.09;97463.63;8444157;27;20243;-70
2023/05/10 10:48:48;;;;;;;1.90;1.80;;;;;;;21.59;44.50;97466.75;8444191;28;20228;-70
2023/05/10 10:52:51;;;;;;;1.73;1.50;;;;;;;20.58;46.46;97450.00;8443832;28;20227;-69
2023/05/10 10:57:12;;;;;;;1.50;1.30;;;;;;;21.02;45.04;97469.53;8444044;28;20286;-69
2023/05/10 11:01:16;;;;;;;1.33;1.27;;;;;;;20.87;46.21;97471.81;8444121;27;20273;-69
2023/05/10 11:05:47;;;;;;;2.27;1.50;;;;;;;20.84;46.63;97474.72;8467625;28;20219;-68
2023/05/10 11:09:50;;;;;;;1.73;1.30;;;;;;;21.22;46.56;97475.50;8477680;28;20245;-68
2023/05/10 11:13:53;;;;;;;1.70;1.60;;;;;;;21.00;46.81;97468.84;8477961;28;20464;-68
2023/05/10 11:17:56;;;;;;;2.50;1.30;;;;;;;20.91;46.00;97469.72;8477491;27;20223;-67
2023/05/10 11:22:15;;;;;;;1.30;1.20;;;;;;;20.94;45.77;97474.69;8478033;28;20225;-69
2023/05/10 11:26:18;;;;;;;1.30;1.20;;;;;;;21.37;44.48;97475.84;8467255;28;20752;-71
2023/05/10 11:30:22;;;;;;;1.00;0.90;;;;;;;21.21;45.26;97473.03;8477219;28;20226;-69
2023/05/10 11:34:25;;;;;;;1.13;1.03;;;;;;;20.90;45.61;97465.41;8476684;28;20238;-69
2023/05/10 11:38:29;;;;;;;3.40;1.00;;;;;;;20.92;46.52;97465.28;8476979;28;20265;-69
2023/05/10 11:42:33;;;;;;;3.33;1.10;;;;;;;21.72;44.56;97470.78;8475570;28;20693;-67
2023/05/10 11:46:37;;;;;;;1.20;0.80;;;;;;;21.37;45.58;97461.88;8476738;27;20231;-68
2023/05/10 11:50:40;;;;;;;1.30;1.20;;;;;;;21.24;45.83;97473.56;8482562;27;20415;-68
2023/05/10 11:54:52;;;;;;;1.80;1.13;;;;;;;21.27;45.90;97472.47;8482776;27;20401;-68
2023/05/10 11:58:56;;;;;;;1.20;1.10;;;;;;;21.53;45.92;97458.59;8482873;28;20227;-68
2023/05/10 12:02:59;;;;;;;1.77;1.10;;;;;;;21.65;43.88;97468.78;8482709;27;20335;-68
2023/05/10 12:07:02;;;;;;;1.53;0.90;;;;;;;22.17;43.20;97461.97;8482654;27;20412;-68
2023/05/10 12:11:08;;;;;;;1.73;1.00;;;;;;;21.66;44.09;97467.78;8481742;27;20214;-67
2023/05/10 12:15:18;;;;;;;1.13;1.00;;;;;;;21.59;45.34;97476.44;8482586;28;20231;-67
2023/05/10 12:19:21;;;;;;;0.90;0.90;;;;;;;21.60;46.47;97480.72;8473857;27;20233;-68
2023/05/10 12:23:24;;;;;;;1.13;0.90;;;;;;;21.36;46.04;97486.53;8481758;28;20234;-68
2023/05/10 12:27:35;;;;;;;1.43;0.80;;;;;;;21.26;46.21;97482.13;8481723;27;20235;-67
2023/05/10 12:31:50;;;;;;;1.20;1.10;;;;;;;21.01;46.48;97482.84;8482113;27;20238;-68
2023/05/10 12:35:54;;;;;;;3.90;1.03;;;;;;;20.83;49.00;97482.78;8481954;28;20412;-68
2023/05/10 12:39:58;;;;;;;2.13;1.10;;;;;;;20.73;51.09;97484.59;8481704;28;20231;-68
2023/05/10 12:44:03;;;;;;;2.00;1.10;;;;;;;20.71;50.94;97482.09;8481653;27;20507;-68
2023/05/10 12:48:05;;;;;;;3.23;1.10;;;;;;;20.91;51.42;97472.34;8481815;28;20234;-70
2023/05/10 12:52:08;;;;;;;1.33;0.90;;;;;;;21.56;50.01;97476.75;8480909;27;20444;-69
2023/05/10 12:56:11;;;;;;;0.80;0.70;;;;;;;21.48;49.29;97480.94;8480710;27;20534;-70
2023/05/10 13:00:16;;;;;;;1.47;1.00;;;;;;;21.15;49.44;97478.88;8480124;27;20223;-69
2023/05/10 13:04:20;;;;;;;0.90;0.90;;;;;;;21.42;48.34;97478.06;8471754;27;20317;-70
2023/05/10 13:08:23;;;;;;;1.20;0.70;;;;;;;21.43;48.50;97469.16;8480516;28;20237;-70
2023/05/10 13:12:26;;;;;;;2.73;1.20;;;;;;;20.66;49.33;97479.91;8480546;28;20479;-70
2023/05/10 13:16:30;;;;;;;1.70;0.93;;;;;;;21.10;48.24;97476.69;8480345;27;20417;-69
2023/05/10 13:20:33;;;;;;;0.80;0.80;;;;;;;20.85;49.12;97470.31;8480808;27;20455;-69
2023/05/10 13:24:36;;;;;;;0.90;0.90;;;;;;;20.78;49.83;97475.31;8480284;28;20244;-69
2023/05/10 13:28:39;;;;;;;1.23;1.13;;;;;;;20.88;48.69;97475.25;8479065;27;20517;-69
2023/05/10 13:32:43;;;;;;;1.53;1.00;;;;;;;20.66;48.34;97455.41;8485513;27;20227;-69
2023/05/10 13:36:46;;;;;;;1.20;1.10;;;;;;;20.89;47.35;97490.09;8480254;27;20237;-70
2023/05/10 13:40:52;;;;;;;2.23;1.20;;;;;;;20.75;48.20;97494.00;8479403;28;20246;-69
2023/05/10 13:44:55;;;;;;;0.90;0.90;;;;;;;21.01;48.11;97488.91;8479734;27;20284;-68
2023/05/10 13:48:59;;;;;;;1.27;1.17;;;;;;;20.79;48.37;97498.03;8480260;27;20226;-68
2023/05/10 13:53:02;;;;;;;1.37;1.10;;;;;;;20.53;48.29;97500.41;8479983;28;20238;-70
2023/05/10 13:57:05;;;;;;;1.00;0.93;;;;;;;20.54;46.98;97488.91;8479500;28;20222;-69
2023/05/10 14:01:08;;;;;;;0.93;0.70;;;;;;;20.40;46.50;97487.56;8479803;27;20237;-69
2023/05/10 14:05:12;;;;;;;0.70;0.70;;;;;;;20.46;46.17;97492.25;8479849;28;20235;-69
2023/05/10 14:09:15;;;;;;;1.40;0.83;;;;;;;20.26;46.34;97488.84;8479561;28;20234;-69
2023/05/10 14:13:18;;;;;;;0.97;0.60;;;;;;;20.36;45.33;97491.44;8470057;28;20230;-70
2023/05/10 14:17:22;;;;;;;0.50;0.50;;;;;;;20.51;45.74;97486.56;8479558;27;20231;-70
2023/05/10 14:21:28;;;;;;;1.40;0.70;;;;;;;20.68;45.25;97498.19;8478927;28;20233;-68
2023/05/10 14:25:31;;;;;;;1.37;0.67;;;;;;;20.65;45.71;97493.22;8478976;28;20290;-70
2023/05/10 14:29:34;;;;;;;0.80;0.80;;;;;;;20.54;45.75;97495.97;8479178;27;20226;-69
2023/05/10 14:33:38;;;;;;;2.17;1.10;;;;;;;20.49;46.59;97491.16;8479262;28;20250;-69
2023/05/10 14:37:42;;;;;;;1.50;0.97;;;;;;;20.10;47.73;97506.97;8478948;28;20223;-68
2023/05/10 14:41:46;;;;;;;0.87;0.87;;;;;;;19.94;47.75;97501.47;8478694;27;20237;-69
2023/05/10 14:45:49;;;;;;;2.70;0.60;;;;;;;19.67;46.82;97500.31;8478733;28;20483;-68
2023/05/10 14:49:52;;;;;;;0.60;0.60;;;;;;;19.73;46.48;97489.28;8479054;28;20222;-68
2023/05/10 14:53:56;;;;;;;1.40;0.60;;;;;;;19.92;46.67;97497.16;8478548;27;20316;-67
2023/05/10 14:57:59;;;;;;;0.50;0.50;;;;;;;20.33;45.83;97498.78;8477883;28;20416;-72
2023/05/10 15:02:03;;;;;;;6.53;1.13;;;;;;;20.13;47.55;97511.97;8478304;28;20534;-69
2023/05/10 15:06:06;;;;;;;0.60;0.60;;;;;;;20.00;48.52;97509.59;8477853;27;20258;-68
2023/05/10 15:10:12;;;;;;;1.80;0.80;;;;;;;20.11;47.30;97514.72;8476494;27;20233;-67
2023/05/10 15:14:14;;;;;;;0.80;0.80;;;;;;;20.26;47.81;97516.94;8482978;28;20563;-67
2023/05/10 15:18:17;;;;;;;12.60;2.00;;;;;;;20.11;47.66;97512.09;8477840;28;20261;-67
2023/05/10 15:22:20;;;;;;;2.03;1.33;;;;;;;20.12;46.95;97523.44;8470488;28;20490;-70
2023/05/10 15:26:26;;;;;;;1.37;1.20;;;;;;;19.73;47.98;97521.63;8483803;27;20414;-69
2023/05/10 15:30:29;;;;;;;1.57;1.10;;;;;;;19.33;48.84;97530.34;8484483;28;20234;-68
2023/05/10 15:34:32;;;;;;;1.10;1.00;;;;;;;19.18;49.09;97530.84;8484845;27;20551;-68
2023/05/10 15:38:38;;;;;;;1.10;1.00;;;;;;;19.18;49.16;97536.09;8484588;28;20410;-69
2023/05/10 15:42:42;;;;;;;1.53;1.33;;;;;;;19.11;49.53;97538.41;8483759;27;20259;-70
2023/05/10 15:46:47;;;;;;;1.30;1.00;;;;;;;19.06;49.30;97509.94;8483774;27;20286;-69
2023/05/10 15:50:50;;;;;;;1.10;1.10;;;;;;;19.51;48.92;97548.94;8483525;28;20254;-70
2023/05/10 15:54:53;;;;;;;4.53;1.27;;;;;;;19.18;50.11;97542.19;8483507;28;20224;-70
2023/05/10 15:58:59;;;;;;;1.93;1.20;;;;;;;19.43;49.92;97540.88;8483255;28;20523;-69
2023/05/10 16:03:02;;;;;;;4.70;1.20;;;;;;;19.48;50.44;97543.13;8482551;27;20289;-69
2023/05/10 16:07:05;;;;;;;1.70;1.20;;;;;;;19.71;49.80;97523.50;8483216;27;20282;-71
2023/05/10 16:11:08;;;;;;;1.50;1.20;;;;;;;19.85;49.74;97545.97;8482872;27;20229;-69
2023/05/10 16:15:12;;;;;;;1.77;1.13;;;;;;;19.48;50.72;97545.75;8482543;27;20227;-69
2023/05/10 16:19:15;;;;;;;2.27;1.40;;;;;;;19.48;50.07;97548.38;8482920;27;20555;-69
2023/05/10 16:23:18;;;;;;;2.67;1.40;;;;;;;18.94;50.22;97456.75;8482087;27;20244;-70
2023/05/10 16:27:21;;;;;;;3.30;1.60;;;;;;;19.16;51.27;97527.53;8481915;28;20235;-70
2023/05/10 16:31:25;;;;;;;1.50;1.40;;;;;;;19.76;50.37;97543.31;8481238;27;20238;-69
2023/05/10 16:35:30;;;;;;;1.53;1.43;;;;;;;19.15;50.63;97524.06;8481487;27;20426;-69
2023/05/10 16:39:33;;;;;;;2.13;1.60;;;;;;;18.90;52.37;97564.69;8481592;28;20338;-70
2023/05/10 16:43:35;;;;;;;3.10;1.60;;;;;;;18.99;52.40;97566.53;8481286;28;20305;-70
2023/05/10 16:47:40;;;;;;;1.97;1.83;;;;;;;19.10;51.87;97566.47;8481375;28;20244;-69
2023/05/10 16:51:44;;;;;;;1.90;1.80;;;;;;;19.07;51.98;97550.97;8481651;27;20223;-69
2023/05/10 16:55:46;;;;;;;1.67;1.57;;;;;;;19.21;51.90;97576.03;8481832;28;20227;-70
2023/05/10 16:59:52;;;;;;;1.60;1.50;;;;;;;19.05;52.62;97570.44;8480661;28;20379;-71
2023/05/10 17:03:56;;;;;;;1.50;1.40;;;;;;;19.13;51.61;97565.34;8481569;28;20292;-70
2023/05/10 17:07:59;;;;;;;2.23;1.57;;;;;;;19.18;50.97;97572.84;8481042;27;20348;-71
2023/05/10 17:12:03;;;;;;;2.30;1.20;;;;;;;19.16;50.07;97580.84;8479567;27;20390;-70
2023/05/10 17:16:09;;;;;;;2.08;1.42;;;;;;;19.68;48.34;97584.19;8479696;28;20408;-72
2023/05/10 17:20:14;;;;;;;1.63;1.23;;;;;;;19.09;49.78;97592.81;8480898;27;20469;-70
2023/05/10 17:24:17;;;;;;;1.50;1.40;;;;;;;19.24;50.23;97598.56;8480615;27;20398;-70
2023/05/10 17:28:20;;;;;;;1.80;1.20;;;;;;;19.25;49.80;97601.06;8471715;28;20239;-70
2023/05/10 17:32:22;;;;;;;1.47;1.30;;;;;;;19.19;50.12;97600.75;8480727;27;20235;-71
2023/05/10 17:36:27;;;;;;;1.60;1.20;;;;;;;19.08;50.83;97605.13;8481491;27;20231;-70
2023/05/10 17:40:30;;;;;;;2.20;1.70;;;;;;;18.91;51.51;97606.53;8480673;28;20254;-70
2023/05/10 17:44:34;;;;;;;1.73;1.20;;;;;;;18.94;51.12;97611.53;8480515;27;20226;-72
2023/05/10 17:48:37;;;;;;;2.80;1.60;;;;;;;18.90;51.57;97615.38;8480371;27;20420;-72
2023/05/10 17:52:41;;;;;;;1.70;1.30;;;;;;;18.86;51.40;97606.09;8481032;27;20223;-72
2023/05/10 17:56:44;;;;;;;1.70;1.60;;;;;;;18.89;51.89;97613.72;8480435;27;20225;-73
2023/05/10 18:00:48;;;;;;;3.90;1.50;;;;;;;18.89;52.01;97624.22;8480567;28;20289;-71
2023/05/10 18:04:53;;;;;;;2.20;1.53;;;;;;;18.94;52.12;97637.78;8479827;27;20240;-73
2023/05/10 18:08:59;;;;;;;3.47;1.67;;;;;;;18.86;52.70;97627.06;8479268;27;20222;-72
2023/05/10 18:13:03;;;;;;;1.97;1.40;;;;;;;18.88;52.22;97633.03;8480233;27;20232;-70
2023/05/10 18:17:09;;;;;;;2.03;1.30;;;;;;;18.89;52.30;97639.13;8480278;28;20226;-71
2023/05/10 18:21:13;;;;;;;1.73;1.50;;;;;;;18.64;53.43;97629.78;8480272;28;20252;-70
2023/05/10 18:25:18;;;;;;;2.53;1.50;;;;;;;18.66;53.40;97612.16;8479309;27;20238;-71
2023/05/10 18:29:22;;;;;;;1.30;1.20;;;;;;;18.68;53.88;97646.97;8479667;28;20219;-73
2023/05/10 18:33:25;;;;;;;1.77;1.50;;;;;;;18.69;53.09;97633.69;8479782;28;20237;-72
2023/05/10 18:37:28;;;;;;;2.00;1.50;;;;;;;18.60;54.22;97652.84;8479487;27;20226;-72
2023/05/10 18:41:32;;;;;;;3.07;1.60;;;;;;;18.64;53.55;97646.38;8479481;27;20230;-70
2023/05/10 18:45:35;;;;;;;1.80;1.70;;;;;;;19.13;52.85;97655.44;8478195;28;20485;-70
2023/05/10 18:49:38;;;;;;;1.83;1.60;;;;;;;18.68;54.35;97652.22;8479265;28;20434;-70
2023/05/10 18:53:41;;;;;;;1.87;1.70;;;;;;;19.02;52.84;97616.16;8476549;28;20420;-70
2023/05/10 18:57:45;;;;;;;2.57;1.50;;;;;;;18.78;54.43;97658.34;8481846;27;20613;-70
2023/05/10 19:01:48;;;;;;;2.70;1.60;;;;;;;18.58;54.61;97643.41;8486466;27;20313;-71
2023/05/10 19:05:53;;;;;;;2.33;1.43;;;;;;;18.65;53.94;97665.56;8486608;28;20615;-70
2023/05/10 19:09:55;;;;;;;1.80;1.70;;;;;;;18.55;53.76;97661.06;8485992;27;20233;-71